Pacific Titan — WCZ6844 — position and weather

sailwx.info

Track history (hours):
 
Tides and Currents Weather Stations Pressure Air Temp Water Temp Dewpoint Dewpoint Depression Visibility Wind Speed Wind Dir Waves Ship Positions

Pacific Titan

Owner: WESTERN TOWBOAT CO, SEATTLE, WA. More information available from US FCC via Universal Licensing System and Coast Guard Vessel Documentation Center.

Last reported at 2015-Jan-26 16:33 UTC. Time now 2015-Jan-26 20:34 UTC.
Position N 54°46' W 130°56'.

Type: Tow > 200 m length. MMSI: 338855000.

Date/timePositionNaut miles runAvg speedWind from/ knotsBaromVisibWave heightAir tempDewpointWater temp
2015-Jan-26 16:33N 54°46' W 130°56'1010.3
2015-Jan-26 15:33N 54°38' W 130°45'214 8.4
2015-Jan-25 14:08N 51°31' W 127°52'6 9.6
2015-Jan-25 13:33N 51°26' W 127°52'9 9.2
2015-Jan-25 12:33N 51°17' W 127°53'8 8.4
2015-Jan-25 11:33N 51°09' W 127°49'9 8.7
2015-Jan-25 10:33N 51°03' W 127°39'9 8.6
2015-Jan-25 09:33N 50°57' W 127°29'9 9.3
2015-Jan-25 08:33N 50°52' W 127°17'1110.0
2015-Jan-25 07:26N 50°46' W 127°02'9 9.9
2015-Jan-25 06:32N 50°40' W 126°51'1410.9
2015-Jan-25 05:16N 50°30' W 126°35'70 8.7
2015-Jan-24 21:09N 49°54' W 125°02'1010.3
2015-Jan-24 20:12N 49°47' W 124°50'810.6
2015-Jan-24 19:26N 49°42' W 124°40'1010.7
2015-Jan-24 18:32N 49°36' W 124°28'1110.4
2015-Jan-24 17:31N 49°31' W 124°14'1010.7
2015-Jan-24 16:33N 49°26' W 124°01'1110.8
2015-Jan-24 15:33N 49°19' W 123°48'1110.6
2015-Jan-24 14:33N 49°12' W 123°35'1110.8
2015-Jan-24 13:33N 49°06' W 123°22'1111.1
2015-Jan-24 12:33N 48°58' W 123°10'1110.7
2015-Jan-24 11:33N 48°51' W 122°58'10 9.9
2015-Jan-24 10:33N 48°45' W 122°46'9 8.8
2015-Jan-24 09:34N 48°36' W 122°45'4 8.4
2015-Jan-24 09:04N 48°32' W 122°45'4 7.7
2015-Jan-24 08:33N 48°28' W 122°44'8 7.7
2015-Jan-24 07:34N 48°21' W 122°45'10 9.2
2015-Jan-24 06:27N 48°10' W 122°45'513.6
2015-Jan-24 06:04N 48°07' W 122°39'713.4
2015-Jan-24 05:33N 48°00' W 122°36'113.3
2015-Jan-24 05:29N 47°59' W 122°35'1111.3
2015-Jan-24 04:33N 47°50' W 122°27'111.2
2015-Jan-24 04:29N 47°50' W 122°27'1011.0
2015-Jan-24 03:33N 47°39' W 122°27'110.9
2015-Jan-24 03:29N 47°39' W 122°27'6 6.4
2015-Jan-24 02:33N 47°34' W 122°21'0 0.2
2015-Jan-24 02:29N 47°34' W 122°21'0 0.0
2015-Jan-24 01:33N 47°34' W 122°21'0 0.0
2015-Jan-24 01:29N 47°34' W 122°21'1 1.1
2015-Jan-24 00:33N 47°33' W 122°21'0 0.0
2015-Jan-24 00:33N 47°33' W 122°21'0 0.0
2015-Jan-23 23:33N 47°33' W 122°21'0 0.0
2015-Jan-23 23:33N 47°33' W 122°21'0 0.0
2015-Jan-23 22:33N 47°33' W 122°21'0 0.4
2015-Jan-23 22:33N 47°33' W 122°21'3 2.7
2015-Jan-23 21:34N 47°36' W 122°22'0 1.1
2015-Jan-23 21:33N 47°36' W 122°22'4 4.4
2015-Jan-23 20:33N 47°39' W 122°26'2 1.7
2015-Jan-23 19:34N 47°41' W 122°25'3 2.7
2015-Jan-23 18:33N 47°39' W 122°22'0 0.0
2015-Jan-23 17:33N 47°39' W 122°22'  
2015-Jan-19 22:51N 47°39' W 122°22'0 0.0
2015-Jan-19 22:33N 47°39' W 122°22'0 0.0
2015-Jan-19 22:31N 47°39' W 122°22'2 1.7
2015-Jan-19 21:33N 47°40' W 122°24'0 0.0
2015-Jan-19 21:30N 47°40' W 122°24'4 4.7
2015-Jan-19 20:33N 47°36' W 122°22'0 2.8
2015-Jan-19 20:30N 47°36' W 122°22'8 8.0
2015-Jan-19 19:33N 47°43' W 122°28'1 8.9
2015-Jan-19 19:29N 47°43' W 122°28'9 9.9
2015-Jan-19 18:33N 47°52' W 122°29'0 9.1
2015-Jan-19 18:30N 47°53' W 122°29'8 8.8
2015-Jan-19 17:33N 47°59' W 122°37'9 8.5
2015-Jan-19 16:33N 48°07' W 122°42'8 8.2
2015-Jan-19 15:33N 48°14' W 122°49'111.7
2015-Jan-19 15:30N 48°14' W 122°49'1010.4
2015-Jan-19 14:33N 48°24' W 122°45'10 9.7
2015-Jan-19 13:33N 48°34' W 122°45'8 8.3
2015-Jan-19 12:33N 48°42' W 122°45'9 8.6
2015-Jan-19 11:33N 48°48' W 122°54'9 8.9
2015-Jan-19 10:33N 48°53' W 123°05'8 8.9
2015-Jan-19 09:38N 48°58' W 123°15'1 8.6
2015-Jan-19 09:33N 48°58' W 123°16'9 9.0
2015-Jan-19 08:33N 49°04' W 123°26'9 9.0
2015-Jan-19 07:33N 49°11' W 123°36'7 9.4
2015-Jan-19 06:50N 49°15' W 123°44'3 9.4
2015-Jan-19 06:33N 49°17' W 123°47'1010.0
2015-Jan-19 05:33N 49°23' W 123°58'10 9.5
2015-Jan-19 04:33N 49°29' W 124°09'1010.1
2015-Jan-19 03:32N 49°34' W 124°23'10 9.6
2015-Jan-19 02:33N 49°40' W 124°35'4 9.0
2015-Jan-19 02:05N 49°42' W 124°41'5 9.3
2015-Jan-19 01:33N 49°45' W 124°47'0 9.6
2015-Jan-19 01:30N 49°45' W 124°47'10 9.9
2015-Jan-19 00:31N 49°52' W 124°58'110.0
2015-Jan-19 00:25N 49°53' W 124°60'10 9.9
2015-Jan-18 23:25N 49°59' W 125°11'1310.1
2015-Jan-18 22:10N 50°10' W 125°22'810.1
2015-Jan-18 21:25N 50°17' W 125°24'38 9.8
2015-Jan-18 17:33N 50°29' W 126°21'11 9.0
2015-Jan-18 16:19N 50°31' W 126°38'7 7.9
2015-Jan-18 15:25N 50°36' W 126°45'8 9.2
2015-Jan-18 14:33N 50°41' W 126°55'7 7.2
2015-Jan-18 13:33N 50°44' W 127°05'7 7.0
2015-Jan-18 12:33N 50°49' W 127°13'8 7.6
2015-Jan-18 11:33N 50°54' W 127°22'9 8.5
2015-Jan-18 10:33N 50°59' W 127°33'9 8.9
2015-Jan-18 09:33N 51°05' W 127°43'9 9.3
2015-Jan-18 08:32N 51°13' W 127°52'12 9.9
2015-Jan-18 07:20N 51°25' W 127°52'7 9.5
2015-Jan-18 06:33N 51°32' W 127°52'  
Track history (hours):
 
Tides and Currents Weather Stations Pressure Air Temp Water Temp Dewpoint Dewpoint Depression Visibility Wind Speed Wind Dir Waves Ship Positions

Pacific Titan

Owner: WESTERN TOWBOAT CO, SEATTLE, WA. More information available from US FCC via Universal Licensing System and Coast Guard Vessel Documentation Center.

Last reported at 2015-Jan-26 16:33 UTC. Time now 2015-Jan-26 20:34 UTC.
Position N 54°46' W 130°56'.

Type: Tow > 200 m length. MMSI: 338855000.

Date/timePositionNaut miles runAvg speedWind from/ knotsBaromVisibWave heightAir tempDewpointWater temp
2015-Jan-26 16:33N 54°46' W 130°56'1010.3
2015-Jan-26 15:33N 54°38' W 130°45'214 8.4
2015-Jan-25 14:08N 51°31' W 127°52'6 9.6
2015-Jan-25 13:33N 51°26' W 127°52'9 9.2
2015-Jan-25 12:33N 51°17' W 127°53'8 8.4
2015-Jan-25 11:33N 51°09' W 127°49'9 8.7
2015-Jan-25 10:33N 51°03' W 127°39'9 8.6
2015-Jan-25 09:33N 50°57' W 127°29'9 9.3
2015-Jan-25 08:33N 50°52' W 127°17'1110.0
2015-Jan-25 07:26N 50°46' W 127°02'9 9.9
2015-Jan-25 06:32N 50°40' W 126°51'1410.9
2015-Jan-25 05:16N 50°30' W 126°35'70 8.7
2015-Jan-24 21:09N 49°54' W 125°02'1010.3
2015-Jan-24 20:12N 49°47' W 124°50'810.6
2015-Jan-24 19:26N 49°42' W 124°40'1010.7
2015-Jan-24 18:32N 49°36' W 124°28'1110.4
2015-Jan-24 17:31N 49°31' W 124°14'1010.7
2015-Jan-24 16:33N 49°26' W 124°01'1110.8
2015-Jan-24 15:33N 49°19' W 123°48'1110.6
2015-Jan-24 14:33N 49°12' W 123°35'1110.8
2015-Jan-24 13:33N 49°06' W 123°22'1111.1
2015-Jan-24 12:33N 48°58' W 123°10'1110.7
2015-Jan-24 11:33N 48°51' W 122°58'10 9.9
2015-Jan-24 10:33N 48°45' W 122°46'9 8.8
2015-Jan-24 09:34N 48°36' W 122°45'4 8.4
2015-Jan-24 09:04N 48°32' W 122°45'4 7.7
2015-Jan-24 08:33N 48°28' W 122°44'8 7.7
2015-Jan-24 07:34N 48°21' W 122°45'10 9.2
2015-Jan-24 06:27N 48°10' W 122°45'513.6
2015-Jan-24 06:04N 48°07' W 122°39'713.4
2015-Jan-24 05:33N 48°00' W 122°36'113.3
2015-Jan-24 05:29N 47°59' W 122°35'1111.3
2015-Jan-24 04:33N 47°50' W 122°27'111.2
2015-Jan-24 04:29N 47°50' W 122°27'1011.0
2015-Jan-24 03:33N 47°39' W 122°27'110.9
2015-Jan-24 03:29N 47°39' W 122°27'6 6.4
2015-Jan-24 02:33N 47°34' W 122°21'0 0.2
2015-Jan-24 02:29N 47°34' W 122°21'0 0.0
2015-Jan-24 01:33N 47°34' W 122°21'0 0.0
2015-Jan-24 01:29N 47°34' W 122°21'1 1.1
2015-Jan-24 00:33N 47°33' W 122°21'0 0.0
2015-Jan-24 00:33N 47°33' W 122°21'0 0.0
2015-Jan-23 23:33N 47°33' W 122°21'0 0.0
2015-Jan-23 23:33N 47°33' W 122°21'0 0.0
2015-Jan-23 22:33N 47°33' W 122°21'0 0.4
2015-Jan-23 22:33N 47°33' W 122°21'3 2.7
2015-Jan-23 21:34N 47°36' W 122°22'0 1.1
2015-Jan-23 21:33N 47°36' W 122°22'4 4.4
2015-Jan-23 20:33N 47°39' W 122°26'2 1.7
2015-Jan-23 19:34N 47°41' W 122°25'3 2.7
2015-Jan-23 18:33N 47°39' W 122°22'0 0.0
2015-Jan-23 17:33N 47°39' W 122°22'  
2015-Jan-19 22:51N 47°39' W 122°22'0 0.0
2015-Jan-19 22:33N 47°39' W 122°22'0 0.0
2015-Jan-19 22:31N 47°39' W 122°22'2 1.7
2015-Jan-19 21:33N 47°40' W 122°24'0 0.0
2015-Jan-19 21:30N 47°40' W 122°24'4 4.7
2015-Jan-19 20:33N 47°36' W 122°22'0 2.8
2015-Jan-19 20:30N 47°36' W 122°22'8 8.0
2015-Jan-19 19:33N 47°43' W 122°28'1 8.9
2015-Jan-19 19:29N 47°43' W 122°28'9 9.9
2015-Jan-19 18:33N 47°52' W 122°29'0 9.1
2015-Jan-19 18:30N 47°53' W 122°29'8 8.8
2015-Jan-19 17:33N 47°59' W 122°37'9 8.5
2015-Jan-19 16:33N 48°07' W 122°42'8 8.2
2015-Jan-19 15:33N 48°14' W 122°49'111.7
2015-Jan-19 15:30N 48°14' W 122°49'1010.4
2015-Jan-19 14:33N 48°24' W 122°45'10 9.7
2015-Jan-19 13:33N 48°34' W 122°45'8 8.3
2015-Jan-19 12:33N 48°42' W 122°45'9 8.6
2015-Jan-19 11:33N 48°48' W 122°54'9 8.9
2015-Jan-19 10:33N 48°53' W 123°05'8 8.9
2015-Jan-19 09:38N 48°58' W 123°15'1 8.6
2015-Jan-19 09:33N 48°58' W 123°16'9 9.0
2015-Jan-19 08:33N 49°04' W 123°26'9 9.0
2015-Jan-19 07:33N 49°11' W 123°36'7 9.4
2015-Jan-19 06:50N 49°15' W 123°44'3 9.4
2015-Jan-19 06:33N 49°17' W 123°47'1010.0
2015-Jan-19 05:33N 49°23' W 123°58'10 9.5
2015-Jan-19 04:33N 49°29' W 124°09'1010.1
2015-Jan-19 03:32N 49°34' W 124°23'10 9.6
2015-Jan-19 02:33N 49°40' W 124°35'4 9.0
2015-Jan-19 02:05N 49°42' W 124°41'5 9.3
2015-Jan-19 01:33N 49°45' W 124°47'0 9.6
2015-Jan-19 01:30N 49°45' W 124°47'10 9.9
2015-Jan-19 00:31N 49°52' W 124°58'110.0
2015-Jan-19 00:25N 49°53' W 124°60'10 9.9
2015-Jan-18 23:25N 49°59' W 125°11'1310.1
2015-Jan-18 22:10N 50°10' W 125°22'810.1
2015-Jan-18 21:25N 50°17' W 125°24'38 9.8
2015-Jan-18 17:33N 50°29' W 126°21'11 9.0
2015-Jan-18 16:19N 50°31' W 126°38'7 7.9
2015-Jan-18 15:25N 50°36' W 126°45'8 9.2
2015-Jan-18 14:33N 50°41' W 126°55'7 7.2
2015-Jan-18 13:33N 50°44' W 127°05'7 7.0
2015-Jan-18 12:33N 50°49' W 127°13'8 7.6
2015-Jan-18 11:33N 50°54' W 127°22'9 8.5
2015-Jan-18 10:33N 50°59' W 127°33'9 8.9
2015-Jan-18 09:33N 51°05' W 127°43'9 9.3
2015-Jan-18 08:32N 51°13' W 127°52'12 9.9
2015-Jan-18 07:20N 51°25' W 127°52'7 9.5
2015-Jan-18 06:33N 51°32' W 127°52'  

Dump ship's entire track history